Terminal Aerodrome Forecast
Issued by NWS

Home | Current Version | Previous Version | Text Only | Print | Product List | Glossary On
Versions: 1 2 3 4 5 6 7 8 9 10 11 12 13 14
000
FTUS46 KMTR 020533
TAFSJC
TAF
KSJC 020533Z 0206/0306 16005KT P6SM SKC
     FM021700 VRB03KT P6SM SCT200
     FM022000 31012KT P6SM SCT200
     FM030400 31005KT P6SM BKN200=

USA.gov is the U.S. government's official web portal to all federal, state and local government web resources and services.